Ext Campo Alegre, Puerto Rico
Current Conditions -  °F | °C
As of 8:56 AM on Friday 31 Oct 2014 (Local Time) from TJSJ Reporting Station
Scattered Clouds Scattered Clouds  
Wind Chill: 85°   Ceiling: Unl
Heat Index: 94°   Visibility: 10mi
Dew Point: 76°   Wind: 6mph
Humidity: 74%   Direction: 180°S
Pressure: 29.88"   Gusts: NA
Location:  18.1892°N, 66.1134°W
Report Text: TJSJ 311256Z 18005KT 10SM FEW030 SCT065 29/24 A2988 RMK AO2 SLP117 T02940244
Loading
Personal Weather Stations






























Interactive Weather Map
Tropical Storm Tracking
New forecast layout! Learn more

10-Day Weather Forecast

Advertisements
Track Severe Weather on mobile